sensor_id;sensor_type;location;lat;lon;timestamp;P1;P2;P0
80628;PMS5003;69983;42.370;-71.210;2023-06-22T00:01:33;98;83;
80628;PMS5003;69983;42.370;-71.210;2023-06-22T00:03:34;69;63;
80628;PMS5003;69983;42.370;-71.210;2023-06-22T00:05:34;239;186;
80628;PMS5003;69983;42.370;-71.210;2023-06-22T00:07:35;399;317;
80628;PMS5003;69983;42.370;-71.210;2023-06-22T00:09:36;275;225;
80628;PMS5003;69983;42.370;-71.210;2023-06-22T00:11:36;362;317;
80628;PMS5003;69983;42.370;-71.210;2023-06-22T00:13:37;255;217;
80628;PMS5003;69983;42.370;-71.210;2023-06-22T00:15:38;214;179;
80628;PMS5003;69983;42.370;-71.210;2023-06-22T00:17:37;150;134;
80628;PMS5003;69983;42.370;-71.210;2023-06-22T00:19:38;127;114;
80628;PMS5003;69983;42.370;-71.210;2023-06-22T00:21:39;83;75;
80628;PMS5003;69983;42.370;-71.210;2023-06-22T00:23:39;77;64;
80628;PMS5003;69983;42.370;-71.210;2023-06-22T00:25:40;61;52;
80628;PMS5003;69983;42.370;-71.210;2023-06-22T00:27:40;162;151;
80628;PMS5003;69983;42.370;-71.210;2023-06-22T00:29:40;131;116;
80628;PMS5003;69983;42.370;-71.210;2023-06-22T00:31:41;96;86;
80628;PMS5003;69983;42.370;-71.210;2023-06-22T00:33:41;83;69;
80628;PMS5003;69983;42.370;-71.210;2023-06-22T00:35:41;59;52;
80628;PMS5003;69983;42.370;-71.210;2023-06-22T00:37:42;44;39;
80628;PMS5003;69983;42.370;-71.210;2023-06-22T00:39:42;42;31;
80628;PMS5003;69983;42.370;-71.210;2023-06-22T00:41:43;31;30;
80628;PMS5003;69983;42.370;-71.210;2023-06-22T00:43:44;22;21;
80628;PMS5003;69983;42.370;-71.210;2023-06-22T00:45:44;18;14;
80628;PMS5003;69983;42.370;-71.210;2023-06-22T00:47:44;19;17;
80628;PMS5003;69983;42.370;-71.210;2023-06-22T00:49:44;11;11;
80628;PMS5003;69983;42.370;-71.210;2023-06-22T00:51:44;11;8;
80628;PMS5003;69983;42.370;-71.210;2023-06-22T00:53:45;415;332;
80628;PMS5003;69983;42.370;-71.210;2023-06-22T00:55:45;226;198;
80628;PMS5003;69983;42.370;-71.210;2023-06-22T00:57:45;166;147;
80628;PMS5003;69983;42.370;-71.210;2023-06-22T00:59:46;274;240;
80628;PMS5003;69983;42.370;-71.210;2023-06-22T01:01:46;216;181;
80628;PMS5003;69983;42.370;-71.210;2023-06-22T01:03:46;144;127;
80628;PMS5003;69983;42.370;-71.210;2023-06-22T01:05:47;119;103;
80628;PMS5003;69983;42.370;-71.210;2023-06-22T01:07:51;109;88;
80628;PMS5003;69983;42.370;-71.210;2023-06-22T01:09:49;75;68;
80628;PMS5003;69983;42.370;-71.210;2023-06-22T01:11:50;72;62;
80628;PMS5003;69983;42.370;-71.210;2023-06-22T01:13:50;65;52;
80628;PMS5003;69983;42.370;-71.210;2023-06-22T01:15:49;49;46;
80628;PMS5003;69983;42.370;-71.210;2023-06-22T01:17:49;41;32;
80628;PMS5003;69983;42.370;-71.210;2023-06-22T01:19:50;33;27;
80628;PMS5003;69983;42.370;-71.210;2023-06-22T01:21:50;39;33;
80628;PMS5003;69983;42.370;-71.210;2023-06-22T01:23:54;26;25;
80628;PMS5003;69983;42.370;-71.210;2023-06-22T01:25:53;22;22;
80628;PMS5003;69983;42.370;-71.210;2023-06-22T01:27:53;18;17;
80628;PMS5003;69983;42.370;-71.210;2023-06-22T01:29:55;16;15;
80628;PMS5003;69983;42.370;-71.210;2023-06-22T01:31:54;475;428;
80628;PMS5003;69983;42.370;-71.210;2023-06-22T01:33:54;369;311;
80628;PMS5003;69983;42.370;-71.210;2023-06-22T01:35:54;316;254;
80628;PMS5003;69983;42.370;-71.210;2023-06-22T01:37:54;257;211;
80628;PMS5003;69983;42.370;-71.210;2023-06-22T01:39:54;219;165;
80628;PMS5003;69983;42.370;-71.210;2023-06-22T01:41:55;151;132;
80628;PMS5003;69983;42.370;-71.210;2023-06-22T01:43:55;395;317;
80628;PMS5003;69983;42.370;-71.210;2023-06-22T01:45:56;326;232;
80628;PMS5003;69983;42.370;-71.210;2023-06-22T01:47:57;270;193;
80628;PMS5003;69983;42.370;-71.210;2023-06-22T01:49:57;237;163;
80628;PMS5003;69983;42.370;-71.210;2023-06-22T01:51:57;204;132;
80628;PMS5003;69983;42.370;-71.210;2023-06-22T01:53:58;169;117;
80628;PMS5003;69983;42.370;-71.210;2023-06-22T01:55:58;158;109;
80628;PMS5003;69983;42.370;-71.210;2023-06-22T01:57:58;119;89;
80628;PMS5003;69983;42.370;-71.210;2023-06-22T02:00:00;103;67;
80628;PMS5003;69983;42.370;-71.210;2023-06-22T02:02:01;114;81;
80628;PMS5003;69983;42.370;-71.210;2023-06-22T02:04:02;224;175;
80628;PMS5003;69983;42.370;-71.210;2023-06-22T02:06:03;155;122;
80628;PMS5003;69983;42.370;-71.210;2023-06-22T02:08:02;232;162;
80628;PMS5003;69983;42.370;-71.210;2023-06-22T02:10:02;205;130;
80628;PMS5003;69983;42.370;-71.210;2023-06-22T02:12:03;213;140;
80628;PMS5003;69983;42.370;-71.210;2023-06-22T02:14:03;208;132;
80628;PMS5003;69983;42.370;-71.210;2023-06-22T02:16:03;117;72;
80628;PMS5003;69983;42.370;-71.210;2023-06-22T02:18:03;95;63;
80628;PMS5003;69983;42.370;-71.210;2023-06-22T02:20:04;78;52;
80628;PMS5003;69983;42.370;-71.210;2023-06-22T02:22:04;120;88;
80628;PMS5003;69983;42.370;-71.210;2023-06-22T02:24:05;260;185;
80628;PMS5003;69983;42.370;-71.210;2023-06-22T02:26:05;245;181;
80628;PMS5003;69983;42.370;-71.210;2023-06-22T02:28:06;174;114;
80628;PMS5003;69983;42.370;-71.210;2023-06-22T02:30:11;152;104;
80628;PMS5003;69983;42.370;-71.210;2023-06-22T02:32:07;125;83;
80628;PMS5003;69983;42.370;-71.210;2023-06-22T02:34:08;122;84;
80628;PMS5003;69983;42.370;-71.210;2023-06-22T02:36:08;120;73;
80628;PMS5003;69983;42.370;-71.210;2023-06-22T02:38:08;81;55;
80628;PMS5003;69983;42.370;-71.210;2023-06-22T02:40:09;71;42;
80628;PMS5003;69983;42.370;-71.210;2023-06-22T02:42:09;46;31;
80628;PMS5003;69983;42.370;-71.210;2023-06-22T02:44:09;34;28;
80628;PMS5003;69983;42.370;-71.210;2023-06-22T02:46:10;36;22;
80628;PMS5003;69983;42.370;-71.210;2023-06-22T02:48:10;35;20;
80628;PMS5003;69983;42.370;-71.210;2023-06-22T02:50:11;20;14;
80628;PMS5003;69983;42.370;-71.210;2023-06-22T02:52:11;19;15;
80628;PMS5003;69983;42.370;-71.210;2023-06-22T02:54:11;21;13;
80628;PMS5003;69983;42.370;-71.210;2023-06-22T02:56:12;16;10;
80628;PMS5003;69983;42.370;-71.210;2023-06-22T02:58:12;13;8;
80628;PMS5003;69983;42.370;-71.210;2023-06-22T03:00:13;6;6;
80628;PMS5003;69983;42.370;-71.210;2023-06-22T03:02:13;12;5;
80628;PMS5003;69983;42.370;-71.210;2023-06-22T03:04:13;5;5;
80628;PMS5003;69983;42.370;-71.210;2023-06-22T03:06:13;7;6;
80628;PMS5003;69983;42.370;-71.210;2023-06-22T03:08:13;235;205;
80628;PMS5003;69983;42.370;-71.210;2023-06-22T03:10:15;374;303;
80628;PMS5003;69983;42.370;-71.210;2023-06-22T03:12:15;243;194;
80628;PMS5003;69983;42.370;-71.210;2023-06-22T03:14:15;162;138;
80628;PMS5003;69983;42.370;-71.210;2023-06-22T03:16:15;110;101;
80628;PMS5003;69983;42.370;-71.210;2023-06-22T03:18:15;89;76;
80628;PMS5003;69983;42.370;-71.210;2023-06-22T03:20:15;69;59;
80628;PMS5003;69983;42.370;-71.210;2023-06-22T03:22:16;67;50;
80628;PMS5003;69983;42.370;-71.210;2023-06-22T03:24:17;276;230;
80628;PMS5003;69983;42.370;-71.210;2023-06-22T03:26:18;321;273;
80628;PMS5003;69983;42.370;-71.210;2023-06-22T03:28:18;219;178;
80628;PMS5003;69983;42.370;-71.210;2023-06-22T03:30:19;166;137;
80628;PMS5003;69983;42.370;-71.210;2023-06-22T03:32:19;217;193;
80628;PMS5003;69983;42.370;-71.210;2023-06-22T03:34:20;184;156;
80628;PMS5003;69983;42.370;-71.210;2023-06-22T03:36:20;140;122;
80628;PMS5003;69983;42.370;-71.210;2023-06-22T03:38:21;103;86;
80628;PMS5003;69983;42.370;-71.210;2023-06-22T03:40:21;72;65;
80628;PMS5003;69983;42.370;-71.210;2023-06-22T03:42:22;64;56;
80628;PMS5003;69983;42.370;-71.210;2023-06-22T03:44:22;51;45;
80628;PMS5003;69983;42.370;-71.210;2023-06-22T03:46:23;43;34;
80628;PMS5003;69983;42.370;-71.210;2023-06-22T03:48:23;34;29;
80628;PMS5003;69983;42.370;-71.210;2023-06-22T03:50:24;30;28;
80628;PMS5003;69983;42.370;-71.210;2023-06-22T03:52:24;23;23;
80628;PMS5003;69983;42.370;-71.210;2023-06-22T03:54:25;21;18;
80628;PMS5003;69983;42.370;-71.210;2023-06-22T03:56:25;15;15;
80628;PMS5003;69983;42.370;-71.210;2023-06-22T03:58:26;16;16;
80628;PMS5003;69983;42.370;-71.210;2023-06-22T04:00:25;16;11;
80628;PMS5003;69983;42.370;-71.210;2023-06-22T04:02:26;14;12;
80628;PMS5003;69983;42.370;-71.210;2023-06-22T04:04:26;10;10;
80628;PMS5003;69983;42.370;-71.210;2023-06-22T04:06:26;10;7;
80628;PMS5003;69983;42.370;-71.210;2023-06-22T04:08:26;7;7;
80628;PMS5003;69983;42.370;-71.210;2023-06-22T04:10:26;7;7;
80628;PMS5003;69983;42.370;-71.210;2023-06-22T04:12:26;5;5;
80628;PMS5003;69983;42.370;-71.210;2023-06-22T04:14:26;7;5;
80628;PMS5003;69983;42.370;-71.210;2023-06-22T04:16:26;6;5;
80628;PMS5003;69983;42.370;-71.210;2023-06-22T04:18:27;6;5;
80628;PMS5003;69983;42.370;-71.210;2023-06-22T04:20:27;196;161;
80628;PMS5003;69983;42.370;-71.210;2023-06-22T04:22:28;129;99;
80628;PMS5003;69983;42.370;-71.210;2023-06-22T04:24:29;107;82;
80628;PMS5003;69983;42.370;-71.210;2023-06-22T04:26:29;66;55;
80628;PMS5003;69983;42.370;-71.210;2023-06-22T04:28:29;50;43;
80628;PMS5003;69983;42.370;-71.210;2023-06-22T04:30:32;35;29;
80628;PMS5003;69983;42.370;-71.210;2023-06-22T04:32:30;26;22;
80628;PMS5003;69983;42.370;-71.210;2023-06-22T04:34:31;23;18;
80628;PMS5003;69983;42.370;-71.210;2023-06-22T04:36:31;18;15;
80628;PMS5003;69983;42.370;-71.210;2023-06-22T04:38:32;18;14;
80628;PMS5003;69983;42.370;-71.210;2023-06-22T04:40:32;15;10;
80628;PMS5003;69983;42.370;-71.210;2023-06-22T04:42:34;7;7;
80628;PMS5003;69983;42.370;-71.210;2023-06-22T04:44:33;6;4;
80628;PMS5003;69983;42.370;-71.210;2023-06-22T04:46:33;7;5;
80628;PMS5003;69983;42.370;-71.210;2023-06-22T04:48:33;7;5;
80628;PMS5003;69983;42.370;-71.210;2023-06-22T04:50:33;3;3;
80628;PMS5003;69983;42.370;-71.210;2023-06-22T04:52:33;3;3;
80628;PMS5003;69983;42.370;-71.210;2023-06-22T04:54:33;4;2;
80628;PMS5003;69983;42.370;-71.210;2023-06-22T04:56:33;2;2;
80628;PMS5003;69983;42.370;-71.210;2023-06-22T04:58:33;426;333;
80628;PMS5003;69983;42.370;-71.210;2023-06-22T05:00:34;160;122;
80628;PMS5003;69983;42.370;-71.210;2023-06-22T05:02:34;611;468;
80628;PMS5003;69983;42.370;-71.210;2023-06-22T05:04:35;305;241;
80628;PMS5003;69983;42.370;-71.210;2023-06-22T05:06:35;227;170;
80628;PMS5003;69983;42.370;-71.210;2023-06-22T05:08:36;159;131;
80628;PMS5003;69983;42.370;-71.210;2023-06-22T05:10:37;119;92;
80628;PMS5003;69983;42.370;-71.210;2023-06-22T05:12:38;147;130;
80628;PMS5003;69983;42.370;-71.210;2023-06-22T05:14:38;332;283;
80628;PMS5003;69983;42.370;-71.210;2023-06-22T05:16:38;219;195;
80628;PMS5003;69983;42.370;-71.210;2023-06-22T05:18:39;241;186;
80628;PMS5003;69983;42.370;-71.210;2023-06-22T05:20:39;210;159;
80628;PMS5003;69983;42.370;-71.210;2023-06-22T05:22:40;215;147;
80628;PMS5003;69983;42.370;-71.210;2023-06-22T05:24:40;131;97;
80628;PMS5003;69983;42.370;-71.210;2023-06-22T05:26:41;81;69;
80628;PMS5003;69983;42.370;-71.210;2023-06-22T05:28:41;79;73;
80628;PMS5003;69983;42.370;-71.210;2023-06-22T05:30:41;307;239;
80628;PMS5003;69983;42.370;-71.210;2023-06-22T05:32:42;203;148;
80628;PMS5003;69983;42.370;-71.210;2023-06-22T05:34:42;171;124;
80628;PMS5003;69983;42.370;-71.210;2023-06-22T05:36:43;195;123;
80628;PMS5003;69983;42.370;-71.210;2023-06-22T05:38:43;140;98;
80628;PMS5003;69983;42.370;-71.210;2023-06-22T05:40:44;82;60;
80628;PMS5003;69983;42.370;-71.210;2023-06-22T05:42:45;129;115;
80628;PMS5003;69983;42.370;-71.210;2023-06-22T05:44:45;194;165;
80628;PMS5003;69983;42.370;-71.210;2023-06-22T05:46:46;172;136;
80628;PMS5003;69983;42.370;-71.210;2023-06-22T05:48:46;141;116;
80628;PMS5003;69983;42.370;-71.210;2023-06-22T05:50:46;223;178;
80628;PMS5003;69983;42.370;-71.210;2023-06-22T05:52:47;149;120;
80628;PMS5003;69983;42.370;-71.210;2023-06-22T05:54:48;127;105;
80628;PMS5003;69983;42.370;-71.210;2023-06-22T05:56:48;152;106;
80628;PMS5003;69983;42.370;-71.210;2023-06-22T05:58:49;199;125;
80628;PMS5003;69983;42.370;-71.210;2023-06-22T06:00:50;143;91;
80628;PMS5003;69983;42.370;-71.210;2023-06-22T06:02:50;102;71;
80628;PMS5003;69983;42.370;-71.210;2023-06-22T06:04:50;76;55;
80628;PMS5003;69983;42.370;-71.210;2023-06-22T06:06:51;79;53;
80628;PMS5003;69983;42.370;-71.210;2023-06-22T06:08:51;58;39;
80628;PMS5003;69983;42.370;-71.210;2023-06-22T06:10:52;31;29;
80628;PMS5003;69983;42.370;-71.210;2023-06-22T06:12:52;31;24;
80628;PMS5003;69983;42.370;-71.210;2023-06-22T06:14:53;23;16;
80628;PMS5003;69983;42.370;-71.210;2023-06-22T06:16:53;20;14;
80628;PMS5003;69983;42.370;-71.210;2023-06-22T06:18:54;55;47;
80628;PMS5003;69983;42.370;-71.210;2023-06-22T06:20:54;25;22;
80628;PMS5003;69983;42.370;-71.210;2023-06-22T06:22:55;20;16;
80628;PMS5003;69983;42.370;-71.210;2023-06-22T06:24:56;215;165;
80628;PMS5003;69983;42.370;-71.210;2023-06-22T06:26:56;134;101;
80628;PMS5003;69983;42.370;-71.210;2023-06-22T06:28:56;319;261;
80628;PMS5003;69983;42.370;-71.210;2023-06-22T06:30:57;169;140;
80628;PMS5003;69983;42.370;-71.210;2023-06-22T06:32:57;204;172;
80628;PMS5003;69983;42.370;-71.210;2023-06-22T06:34:58;192;166;
80628;PMS5003;69983;42.370;-71.210;2023-06-22T06:36:58;137;123;
80628;PMS5003;69983;42.370;-71.210;2023-06-22T06:38:59;117;99;
80628;PMS5003;69983;42.370;-71.210;2023-06-22T06:41:00;249;195;
80628;PMS5003;69983;42.370;-71.210;2023-06-22T06:43:01;200;156;
80628;PMS5003;69983;42.370;-71.210;2023-06-22T06:45:01;157;130;
80628;PMS5003;69983;42.370;-71.210;2023-06-22T06:47:01;116;101;
80628;PMS5003;69983;42.370;-71.210;2023-06-22T06:49:02;101;84;
80628;PMS5003;69983;42.370;-71.210;2023-06-22T06:51:02;89;69;
80628;PMS5003;69983;42.370;-71.210;2023-06-22T06:53:02;58;47;
80628;PMS5003;69983;42.370;-71.210;2023-06-22T06:55:04;49;38;
80628;PMS5003;69983;42.370;-71.210;2023-06-22T06:57:03;44;33;
80628;PMS5003;69983;42.370;-71.210;2023-06-22T06:59:03;32;26;
80628;PMS5003;69983;42.370;-71.210;2023-06-22T07:01:04;26;24;
80628;PMS5003;69983;42.370;-71.210;2023-06-22T07:03:04;30;23;
80628;PMS5003;69983;42.370;-71.210;2023-06-22T07:05:05;22;19;
80628;PMS5003;69983;42.370;-71.210;2023-06-22T07:07:05;16;13;
80628;PMS5003;69983;42.370;-71.210;2023-06-22T07:09:06;17;12;
80628;PMS5003;69983;42.370;-71.210;2023-06-22T07:11:06;11;10;
80628;PMS5003;69983;42.370;-71.210;2023-06-22T07:13:06;10;9;
80628;PMS5003;69983;42.370;-71.210;2023-06-22T07:15:08;12;10;
80628;PMS5003;69983;42.370;-71.210;2023-06-22T07:17:07;9;6;
80628;PMS5003;69983;42.370;-71.210;2023-06-22T07:19:07;8;6;
80628;PMS5003;69983;42.370;-71.210;2023-06-22T07:21:08;7;6;
80628;PMS5003;69983;42.370;-71.210;2023-06-22T07:23:08;4;4;
80628;PMS5003;69983;42.370;-71.210;2023-06-22T07:25:08;6;5;
80628;PMS5003;69983;42.370;-71.210;2023-06-22T07:27:08;4;2;
80628;PMS5003;69983;42.370;-71.210;2023-06-22T07:29:08;5;4;
80628;PMS5003;69983;42.370;-71.210;2023-06-22T07:31:08;2;2;
80628;PMS5003;69983;42.370;-71.210;2023-06-22T07:33:08;4;2;
80628;PMS5003;69983;42.370;-71.210;2023-06-22T07:35:09;2;2;
80628;PMS5003;69983;42.370;-71.210;2023-06-22T07:37:09;2;2;
80628;PMS5003;69983;42.370;-71.210;2023-06-22T07:39:08;2;2;
80628;PMS5003;69983;42.370;-71.210;2023-06-22T07:41:09;1;1;
80628;PMS5003;69983;42.370;-71.210;2023-06-22T07:43:09;0;0;
80628;PMS5003;69983;42.370;-71.210;2023-06-22T07:45:09;0;0;
80628;PMS5003;69983;42.370;-71.210;2023-06-22T07:47:09;0;0;
80628;PMS5003;69983;42.370;-71.210;2023-06-22T07:49:09;2;2;
80628;PMS5003;69983;42.370;-71.210;2023-06-22T07:51:09;0;0;
80628;PMS5003;69983;42.370;-71.210;2023-06-22T07:53:09;0;0;
80628;PMS5003;69983;42.370;-71.210;2023-06-22T07:55:10;1;1;
80628;PMS5003;69983;42.370;-71.210;2023-06-22T07:57:10;0;0;
80628;PMS5003;69983;42.370;-71.210;2023-06-22T07:59:10;2;0;
80628;PMS5003;69983;42.370;-71.210;2023-06-22T08:01:10;1;1;
80628;PMS5003;69983;42.370;-71.210;2023-06-22T08:03:10;0;0;
80628;PMS5003;69983;42.370;-71.210;2023-06-22T08:05:10;0;0;
80628;PMS5003;69983;42.370;-71.210;2023-06-22T08:07:10;0;0;
80628;PMS5003;69983;42.370;-71.210;2023-06-22T08:09:10;0;0;
80628;PMS5003;69983;42.370;-71.210;2023-06-22T08:11:10;0;0;
80628;PMS5003;69983;42.370;-71.210;2023-06-22T08:13:10;0;0;
80628;PMS5003;69983;42.370;-71.210;2023-06-22T08:15:10;0;0;
80628;PMS5003;69983;42.370;-71.210;2023-06-22T08:17:11;0;0;
80628;PMS5003;69983;42.370;-71.210;2023-06-22T08:19:11;0;0;
80628;PMS5003;69983;42.370;-71.210;2023-06-22T08:21:13;0;0;
80628;PMS5003;69983;42.370;-71.210;2023-06-22T08:23:11;0;0;
80628;PMS5003;69983;42.370;-71.210;2023-06-22T08:25:11;0;0;
80628;PMS5003;69983;42.370;-71.210;2023-06-22T08:27:11;0;0;
80628;PMS5003;69983;42.370;-71.210;2023-06-22T08:29:11;0;0;
80628;PMS5003;69983;42.370;-71.210;2023-06-22T08:31:11;0;0;
80628;PMS5003;69983;42.370;-71.210;2023-06-22T08:33:11;0;0;
80628;PMS5003;69983;42.370;-71.210;2023-06-22T08:35:11;0;0;
80628;PMS5003;69983;42.370;-71.210;2023-06-22T08:37:11;0;0;
80628;PMS5003;69983;42.370;-71.210;2023-06-22T08:39:11;0;0;
80628;PMS5003;69983;42.370;-71.210;2023-06-22T08:41:12;0;0;
80628;PMS5003;69983;42.370;-71.210;2023-06-22T08:43:12;0;0;
80628;PMS5003;69983;42.370;-71.210;2023-06-22T08:45:12;1;0;
80628;PMS5003;69983;42.370;-71.210;2023-06-22T08:47:12;0;0;
80628;PMS5003;69983;42.370;-71.210;2023-06-22T08:49:12;0;0;
80628;PMS5003;69983;42.370;-71.210;2023-06-22T08:51:12;0;0;
80628;PMS5003;69983;42.370;-71.210;2023-06-22T08:53:12;0;0;
80628;PMS5003;69983;42.370;-71.210;2023-06-22T08:55:12;0;0;
80628;PMS5003;69983;42.370;-71.210;2023-06-22T08:57:12;0;0;
80628;PMS5003;69983;42.370;-71.210;2023-06-22T08:59:12;0;0;
80628;PMS5003;69983;42.370;-71.210;2023-06-22T09:01:12;0;0;
80628;PMS5003;69983;42.370;-71.210;2023-06-22T09:03:13;0;0;
80628;PMS5003;69983;42.370;-71.210;2023-06-22T09:05:13;0;0;
80628;PMS5003;69983;42.370;-71.210;2023-06-22T09:07:13;0;0;
80628;PMS5003;69983;42.370;-71.210;2023-06-22T09:09:13;0;0;
80628;PMS5003;69983;42.370;-71.210;2023-06-22T09:11:13;0;0;
80628;PMS5003;69983;42.370;-71.210;2023-06-22T09:13:13;0;0;
80628;PMS5003;69983;42.370;-71.210;2023-06-22T09:15:14;0;0;
80628;PMS5003;69983;42.370;-71.210;2023-06-22T09:17:13;0;0;
80628;PMS5003;69983;42.370;-71.210;2023-06-22T09:19:13;0;0;
80628;PMS5003;69983;42.370;-71.210;2023-06-22T09:21:13;0;0;
80628;PMS5003;69983;42.370;-71.210;2023-06-22T09:23:14;0;0;
80628;PMS5003;69983;42.370;-71.210;2023-06-22T09:25:14;0;0;
80628;PMS5003;69983;42.370;-71.210;2023-06-22T09:27:14;0;0;
80628;PMS5003;69983;42.370;-71.210;2023-06-22T09:29:14;0;0;
80628;PMS5003;69983;42.370;-71.210;2023-06-22T09:31:14;0;0;
80628;PMS5003;69983;42.370;-71.210;2023-06-22T09:33:14;0;0;
80628;PMS5003;69983;42.370;-71.210;2023-06-22T09:35:14;0;0;
80628;PMS5003;69983;42.370;-71.210;2023-06-22T09:37:14;0;0;
80628;PMS5003;69983;42.370;-71.210;2023-06-22T09:39:14;0;0;
80628;PMS5003;69983;42.370;-71.210;2023-06-22T09:41:14;0;0;
80628;PMS5003;69983;42.370;-71.210;2023-06-22T09:43:14;0;0;
80628;PMS5003;69983;42.370;-71.210;2023-06-22T09:45:15;0;0;
80628;PMS5003;69983;42.370;-71.210;2023-06-22T09:47:15;0;0;
80628;PMS5003;69983;42.370;-71.210;2023-06-22T09:49:15;0;0;
80628;PMS5003;69983;42.370;-71.210;2023-06-22T09:51:15;0;0;
80628;PMS5003;69983;42.370;-71.210;2023-06-22T09:53:15;0;0;
80628;PMS5003;69983;42.370;-71.210;2023-06-22T09:55:15;0;0;
80628;PMS5003;69983;42.370;-71.210;2023-06-22T09:57:15;0;0;
80628;PMS5003;69983;42.370;-71.210;2023-06-22T09:59:15;0;0;
80628;PMS5003;69983;42.370;-71.210;2023-06-22T10:01:15;0;0;
80628;PMS5003;69983;42.370;-71.210;2023-06-22T10:03:15;0;0;
80628;PMS5003;69983;42.370;-71.210;2023-06-22T10:05:16;0;0;
80628;PMS5003;69983;42.370;-71.210;2023-06-22T10:07:16;0;0;
80628;PMS5003;69983;42.370;-71.210;2023-06-22T10:09:16;0;0;
80628;PMS5003;69983;42.370;-71.210;2023-06-22T10:11:16;0;0;
80628;PMS5003;69983;42.370;-71.210;2023-06-22T10:13:16;0;0;
80628;PMS5003;69983;42.370;-71.210;2023-06-22T10:15:16;0;0;
80628;PMS5003;69983;42.370;-71.210;2023-06-22T10:17:16;0;0;
80628;PMS5003;69983;42.370;-71.210;2023-06-22T10:19:16;0;0;
80628;PMS5003;69983;42.370;-71.210;2023-06-22T10:21:16;0;0;
80628;PMS5003;69983;42.370;-71.210;2023-06-22T10:23:16;0;0;
80628;PMS5003;69983;42.370;-71.210;2023-06-22T10:25:17;0;0;
80628;PMS5003;69983;42.370;-71.210;2023-06-22T10:27:17;0;0;
80628;PMS5003;69983;42.370;-71.210;2023-06-22T10:29:17;0;0;
80628;PMS5003;69983;42.370;-71.210;2023-06-22T10:31:17;0;0;
80628;PMS5003;69983;42.370;-71.210;2023-06-22T10:33:17;0;0;
80628;PMS5003;69983;42.370;-71.210;2023-06-22T10:35:17;0;0;
80628;PMS5003;69983;42.370;-71.210;2023-06-22T10:37:17;0;0;
80628;PMS5003;69983;42.370;-71.210;2023-06-22T10:39:17;0;0;
80628;PMS5003;69983;42.370;-71.210;2023-06-22T10:41:18;0;0;
80628;PMS5003;69983;42.370;-71.210;2023-06-22T10:43:17;0;0;
80628;PMS5003;69983;42.370;-71.210;2023-06-22T10:45:18;0;0;
80628;PMS5003;69983;42.370;-71.210;2023-06-22T10:47:17;0;0;
80628;PMS5003;69983;42.370;-71.210;2023-06-22T10:49:17;0;0;
80628;PMS5003;69983;42.370;-71.210;2023-06-22T10:51:18;0;0;
80628;PMS5003;69983;42.370;-71.210;2023-06-22T10:53:18;0;0;
80628;PMS5003;69983;42.370;-71.210;2023-06-22T10:55:18;0;0;
80628;PMS5003;69983;42.370;-71.210;2023-06-22T10:57:18;0;0;
80628;PMS5003;69983;42.370;-71.210;2023-06-22T10:59:18;0;0;
80628;PMS5003;69983;42.370;-71.210;2023-06-22T11:01:18;0;0;
80628;PMS5003;69983;42.370;-71.210;2023-06-22T11:03:18;0;0;
80628;PMS5003;69983;42.370;-71.210;2023-06-22T11:05:18;0;0;
80628;PMS5003;69983;42.370;-71.210;2023-06-22T11:07:18;0;0;
80628;PMS5003;69983;42.370;-71.210;2023-06-22T11:09:18;0;0;
80628;PMS5003;69983;42.370;-71.210;2023-06-22T11:11:18;0;0;
80628;PMS5003;69983;42.370;-71.210;2023-06-22T11:13:18;0;0;
80628;PMS5003;69983;42.370;-71.210;2023-06-22T11:15:19;0;0;
80628;PMS5003;69983;42.370;-71.210;2023-06-22T11:17:19;0;0;
80628;PMS5003;69983;42.370;-71.210;2023-06-22T11:19:19;0;0;
80628;PMS5003;69983;42.370;-71.210;2023-06-22T11:21:19;0;0;
80628;PMS5003;69983;42.370;-71.210;2023-06-22T11:23:19;0;0;
80628;PMS5003;69983;42.370;-71.210;2023-06-22T11:25:19;0;0;
80628;PMS5003;69983;42.370;-71.210;2023-06-22T11:27:19;0;0;
80628;PMS5003;69983;42.370;-71.210;2023-06-22T11:29:19;0;0;
80628;PMS5003;69983;42.370;-71.210;2023-06-22T11:31:20;0;0;
80628;PMS5003;69983;42.370;-71.210;2023-06-22T11:33:19;0;0;
80628;PMS5003;69983;42.370;-71.210;2023-06-22T11:35:20;0;0;
80628;PMS5003;69983;42.370;-71.210;2023-06-22T11:37:20;0;0;
80628;PMS5003;69983;42.370;-71.210;2023-06-22T11:39:20;0;0;
80628;PMS5003;69983;42.370;-71.210;2023-06-22T11:41:20;0;0;
80628;PMS5003;69983;42.370;-71.210;2023-06-22T11:43:20;0;0;
80628;PMS5003;69983;42.370;-71.210;2023-06-22T11:45:20;0;0;
80628;PMS5003;69983;42.370;-71.210;2023-06-22T11:47:20;0;0;
80628;PMS5003;69983;42.370;-71.210;2023-06-22T11:49:20;0;0;
80628;PMS5003;69983;42.370;-71.210;2023-06-22T11:51:20;0;0;
80628;PMS5003;69983;42.370;-71.210;2023-06-22T11:53:20;0;0;
80628;PMS5003;69983;42.370;-71.210;2023-06-22T11:55:21;0;0;
80628;PMS5003;69983;42.370;-71.210;2023-06-22T11:57:21;0;0;
80628;PMS5003;69983;42.370;-71.210;2023-06-22T11:59:21;0;0;
80628;PMS5003;69983;42.370;-71.210;2023-06-22T12:01:21;0;0;
80628;PMS5003;69983;42.370;-71.210;2023-06-22T12:03:21;0;0;
80628;PMS5003;69983;42.370;-71.210;2023-06-22T12:05:21;0;0;
80628;PMS5003;69983;42.370;-71.210;2023-06-22T12:07:21;0;0;
80628;PMS5003;69983;42.370;-71.210;2023-06-22T12:09:21;0;0;
80628;PMS5003;69983;42.370;-71.210;2023-06-22T12:11:21;0;0;
80628;PMS5003;69983;42.370;-71.210;2023-06-22T12:13:21;0;0;
80628;PMS5003;69983;42.370;-71.210;2023-06-22T12:15:22;0;0;
80628;PMS5003;69983;42.370;-71.210;2023-06-22T12:17:22;0;0;
80628;PMS5003;69983;42.370;-71.210;2023-06-22T12:19:22;0;0;
80628;PMS5003;69983;42.370;-71.210;2023-06-22T12:21:22;0;0;
80628;PMS5003;69983;42.370;-71.210;2023-06-22T12:23:22;0;0;
80628;PMS5003;69983;42.370;-71.210;2023-06-22T12:25:22;0;0;
80628;PMS5003;69983;42.370;-71.210;2023-06-22T12:27:22;0;0;
80628;PMS5003;69983;42.370;-71.210;2023-06-22T12:29:22;0;0;
80628;PMS5003;69983;42.370;-71.210;2023-06-22T12:31:22;0;0;
80628;PMS5003;69983;42.370;-71.210;2023-06-22T12:33:22;0;0;
80628;PMS5003;69983;42.370;-71.210;2023-06-22T12:35:22;0;0;
80628;PMS5003;69983;42.370;-71.210;2023-06-22T12:37:23;0;0;
80628;PMS5003;69983;42.370;-71.210;2023-06-22T12:39:23;0;0;
80628;PMS5003;69983;42.370;-71.210;2023-06-22T12:41:23;0;0;
80628;PMS5003;69983;42.370;-71.210;2023-06-22T12:43:23;0;0;
80628;PMS5003;69983;42.370;-71.210;2023-06-22T12:45:23;0;0;
80628;PMS5003;69983;42.370;-71.210;2023-06-22T12:47:23;0;0;
80628;PMS5003;69983;42.370;-71.210;2023-06-22T12:49:23;0;0;
80628;PMS5003;69983;42.370;-71.210;2023-06-22T12:51:23;0;0;
80628;PMS5003;69983;42.370;-71.210;2023-06-22T12:53:23;0;0;
80628;PMS5003;69983;42.370;-71.210;2023-06-22T12:55:23;0;0;
80628;PMS5003;69983;42.370;-71.210;2023-06-22T12:57:23;0;0;
80628;PMS5003;69983;42.370;-71.210;2023-06-22T12:59:23;0;0;